Terminal Aerodrome Forecast
Issued by NWS

Home | Current Version | Previous Version | Text Only | Print | Product List | Glossary On
Versions: 1 2 3 4 5 6 7 8 9 10 11 12 13 14 15 16 17 18 19 20 21 22 23
000
FTUS44 KLIX 171000 AAB
TAFGPT
TAF AMD
KGPT 171000Z 1710/1806 05005KT P6SM SCT025 BKN030
     FM171400 08011KT P6SM BKN025 PROB30 1803/1806 -SHRA BKN008=

USA.gov is the U.S. government's official web portal to all federal, state and local government web resources and services.